Time;durP1;ratioP1;P1;durP2;ratioP2;P2;SDS_P1;SDS_P2;PMS_P1;PMS_P2;Temp;Humidity;BMP_temperature;BMP_pressure;BME280_temperature;BME280_humidity;BME280_pressure;Samples;Min_cycle;Max_cycle;Signal;HPM_P1;HPM_P2
2022/02/21 00:01:27;;;;;;;58.70;2.63;;;;;;;;;;5094212;28;20540;-69
2022/02/21 00:03:54;;;;;;;59.47;2.57;;;;;;;;;;5093946;28;20485;-70
2022/02/21 00:06:22;;;;;;;58.67;2.70;;;;;;;;;;5094098;28;20456;-70
2022/02/21 00:08:49;;;;;;;58.10;2.47;;;;;;;;;;5093885;28;20455;-71
2022/02/21 00:11:18;;;;;;;59.23;2.60;;;;;;;;;;5094038;28;20455;-70
2022/02/21 00:13:45;;;;;;;58.77;2.70;;;;;;;;;;5093925;28;20477;-70
2022/02/21 00:16:12;;;;;;;59.83;2.83;;;;;;;;;;5093727;28;20551;-70
2022/02/21 00:18:40;;;;;;;59.47;2.70;;;;;;;;;;5092460;28;21040;-69
2022/02/21 00:21:07;;;;;;;58.33;2.40;;;;;;;;;;5074269;28;20862;-70
2022/02/21 00:23:36;;;;;;;57.37;2.30;;;;;;;;;;5073488;28;20490;-70
2022/02/21 00:26:03;;;;;;;60.50;3.23;;;;;;;;;;5073469;28;20467;-70
2022/02/21 00:28:30;;;;;;;60.10;2.60;;;;;;;;;;5072933;28;20477;-71
2022/02/21 00:30:58;;;;;;;58.87;3.03;;;;;;;;;;5073403;28;20450;-70
2022/02/21 00:33:25;;;;;;;58.20;2.47;;;;;;;;;;5073419;28;20450;-70
2022/02/21 00:35:52;;;;;;;58.07;2.67;;;;;;;;;;5073228;28;20510;-70
2022/02/21 00:38:19;;;;;;;58.60;2.63;;;;;;;;;;5073072;28;20843;-70
2022/02/21 00:40:47;;;;;;;58.10;2.60;;;;;;;;;;5073182;28;20565;-70
2022/02/21 00:43:15;;;;;;;61.43;3.07;;;;;;;;;;5073083;28;20500;-70
2022/02/21 00:45:43;;;;;;;59.00;2.83;;;;;;;;;;5072834;28;20475;-70
2022/02/21 00:48:10;;;;;;;61.17;2.30;;;;;;;;;;5072867;28;20885;-70
2022/02/21 00:50:37;;;;;;;60.97;2.80;;;;;;;;;;5073282;28;20544;-70
2022/02/21 00:53:04;;;;;;;58.00;2.50;;;;;;;;;;5088749;28;20453;-70
2022/02/21 00:55:33;;;;;;;57.63;2.67;;;;;;;;;;5093149;28;20469;-70
2022/02/21 00:58:02;;;;;;;59.20;2.50;;;;;;;;;;5092773;28;20565;-70
2022/02/21 01:00:29;;;;;;;62.93;3.20;;;;;;;;;;5093150;28;20837;-71
2022/02/21 01:02:56;;;;;;;59.60;2.80;;;;;;;;;;5092983;28;20455;-70
2022/02/21 01:05:24;;;;;;;60.13;2.70;;;;;;;;;;5093019;28;20497;-70
2022/02/21 01:07:51;;;;;;;58.53;2.83;;;;;;;;;;5092594;28;20532;-71
2022/02/21 01:10:18;;;;;;;60.07;2.90;;;;;;;;;;5092860;28;21020;-70
2022/02/21 01:12:46;;;;;;;58.20;2.50;;;;;;;;;;5092481;28;20969;-70
2022/02/21 01:15:14;;;;;;;60.90;2.70;;;;;;;;;;5093057;28;20466;-70
2022/02/21 01:17:42;;;;;;;61.27;3.33;;;;;;;;;;5092586;28;20454;-71
2022/02/21 01:20:09;;;;;;;58.70;2.63;;;;;;;;;;5092521;28;20536;-70
2022/02/21 01:22:37;;;;;;;61.27;3.20;;;;;;;;;;5092567;28;20450;-70
2022/02/21 01:25:04;;;;;;;58.97;3.03;;;;;;;;;;5076639;28;20971;-70
2022/02/21 01:27:31;;;;;;;61.30;2.70;;;;;;;;;;5072299;28;20461;-70
2022/02/21 01:29:58;;;;;;;63.17;2.77;;;;;;;;;;5071881;28;20466;-70
2022/02/21 01:32:27;;;;;;;58.37;2.67;;;;;;;;;;5072317;28;20447;-70
2022/02/21 01:34:54;;;;;;;58.47;2.67;;;;;;;;;;5072306;28;20545;-71
2022/02/21 01:37:21;;;;;;;62.83;2.80;;;;;;;;;;5072278;28;20541;-69
2022/02/21 01:39:48;;;;;;;57.70;2.70;;;;;;;;;;5072434;28;20458;-70
2022/02/21 01:42:15;;;;;;;58.60;2.50;;;;;;;;;;5072152;28;20831;-69
2022/02/21 01:44:43;;;;;;;58.00;2.70;;;;;;;;;;5072190;28;20486;-70
2022/02/21 01:47:11;;;;;;;59.67;3.13;;;;;;;;;;5071630;28;20544;-70
2022/02/21 01:49:40;;;;;;;58.20;2.40;;;;;;;;;;5072234;28;20552;-69
2022/02/21 01:52:07;;;;;;;59.80;3.00;;;;;;;;;;5071859;28;20478;-70
2022/02/21 01:54:35;;;;;;;60.67;2.93;;;;;;;;;;5071398;28;20512;-70
2022/02/21 01:57:03;;;;;;;63.03;3.00;;;;;;;;;;5070921;28;20460;-69
2022/02/21 01:59:30;;;;;;;57.73;2.70;;;;;;;;;;5071664;28;20454;-70
2022/02/21 02:01:57;;;;;;;57.93;2.83;;;;;;;;;;5072081;28;20451;-70
2022/02/21 02:04:25;;;;;;;59.17;2.60;;;;;;;;;;5071594;28;20485;-69
2022/02/21 02:06:54;;;;;;;58.50;3.07;;;;;;;;;;5071597;28;20451;-70
2022/02/21 02:09:21;;;;;;;62.30;3.00;;;;;;;;;;5071697;28;20457;-71
2022/02/21 02:11:48;;;;;;;58.30;2.83;;;;;;;;;;5071811;28;20449;-70
2022/02/21 02:14:27;;;;;;;58.67;2.73;;;;;;;;;;5071488;28;21016;-70
2022/02/21 02:16:54;;;;;;;58.50;2.77;;;;;;;;;;5071770;28;20872;-69
2022/02/21 02:19:22;;;;;;;58.10;2.60;;;;;;;;;;5071239;28;20950;-70
2022/02/21 02:21:50;;;;;;;60.50;2.80;;;;;;;;;;5072177;28;20565;-71
2022/02/21 02:24:18;;;;;;;62.17;2.90;;;;;;;;;;5071565;28;20494;-71
2022/02/21 02:26:45;;;;;;;58.97;2.90;;;;;;;;;;5071522;28;20446;-72
2022/02/21 02:29:12;;;;;;;58.50;2.83;;;;;;;;;;5089809;28;20463;-70
2022/02/21 02:31:39;;;;;;;58.40;2.60;;;;;;;;;;5091788;28;20457;-70
2022/02/21 02:34:07;;;;;;;58.27;2.70;;;;;;;;;;5091532;28;20465;-70
2022/02/21 02:36:34;;;;;;;58.70;2.70;;;;;;;;;;5092040;28;20451;-70
2022/02/21 02:39:01;;;;;;;57.70;2.47;;;;;;;;;;5091480;28;20540;-70
2022/02/21 02:41:29;;;;;;;60.93;2.67;;;;;;;;;;5094497;28;20817;-70
2022/02/21 02:43:56;;;;;;;57.83;2.60;;;;;;;;;;5095319;28;20491;-69
2022/02/21 02:46:23;;;;;;;60.90;2.93;;;;;;;;;;5095648;28;20449;-71
2022/02/21 02:48:51;;;;;;;58.67;2.80;;;;;;;;;;5093571;28;20537;-70
2022/02/21 02:51:18;;;;;;;57.67;2.67;;;;;;;;;;5095554;28;20529;-72
2022/02/21 02:53:45;;;;;;;58.67;2.70;;;;;;;;;;5095334;28;20537;-71
2022/02/21 02:56:12;;;;;;;57.60;2.40;;;;;;;;;;5095557;28;20448;-72
2022/02/21 02:58:40;;;;;;;58.90;2.43;;;;;;;;;;5095437;28;20449;-70
2022/02/21 03:01:08;;;;;;;60.07;2.50;;;;;;;;;;5093717;28;20539;-70
2022/02/21 03:03:35;;;;;;;58.20;2.60;;;;;;;;;;5095442;28;20536;-70
2022/02/21 03:06:02;;;;;;;58.30;2.40;;;;;;;;;;5095107;28;20468;-70
2022/02/21 03:08:29;;;;;;;58.73;2.60;;;;;;;;;;5095291;28;20824;-69
2022/02/21 03:10:56;;;;;;;58.20;2.60;;;;;;;;;;5095427;28;20449;-69
2022/02/21 03:13:23;;;;;;;57.77;2.33;;;;;;;;;;5095525;28;20444;-69
2022/02/21 03:15:52;;;;;;;58.50;2.90;;;;;;;;;;5095063;28;20472;-71
2022/02/21 03:18:19;;;;;;;61.20;2.60;;;;;;;;;;5094718;28;20452;-69
2022/02/21 03:20:46;;;;;;;57.77;2.60;;;;;;;;;;5094830;28;20451;-69
2022/02/21 03:23:16;;;;;;;58.23;2.80;;;;;;;;;;5095150;28;20517;-70
2022/02/21 03:25:43;;;;;;;57.60;2.57;;;;;;;;;;5094598;28;20493;-70
2022/02/21 03:28:10;;;;;;;58.50;2.43;;;;;;;;;;5094546;28;20444;-70
2022/02/21 03:30:37;;;;;;;58.37;2.60;;;;;;;;;;5094521;28;20448;-70
2022/02/21 03:33:07;;;;;;;57.67;2.30;;;;;;;;;;5092955;28;20536;-70
2022/02/21 03:35:34;;;;;;;62.00;2.53;;;;;;;;;;5094966;28;20535;-69
2022/02/21 03:38:01;;;;;;;59.80;2.57;;;;;;;;;;5094428;28;20463;-70
2022/02/21 03:40:29;;;;;;;58.80;2.90;;;;;;;;;;5094868;28;20446;-72
2022/02/21 03:42:56;;;;;;;62.23;2.70;;;;;;;;;;5094510;28;20450;-71
2022/02/21 03:45:24;;;;;;;58.28;2.70;;;;;;;;;;5094453;28;21089;-72
2022/02/21 03:47:51;;;;;;;61.13;3.38;;;;;;;;;;5094442;28;20200;-71
2022/02/21 03:50:20;;;;;;;58.83;2.85;;;;;;;;;;5094850;28;20226;-71
2022/02/21 03:52:47;;;;;;;60.63;3.25;;;;;;;;;;5094465;28;20295;-71
2022/02/21 03:55:14;;;;;;;58.83;2.97;;;;;;;;;;5094445;28;20313;-71
2022/02/21 03:57:42;;;;;;;59.45;2.88;;;;;;;;;;5094009;28;20232;-71
2022/02/21 04:00:11;;;;;;;59.05;3.30;;;;;;;;;;5094233;28;20213;-72
2022/02/21 04:02:38;;;;;;;58.17;2.78;;;;;;;;;;5094084;28;20292;-72
2022/02/21 04:05:05;;;;;;;58.30;3.05;;;;;;;;;;5079886;28;20251;-71
2022/02/21 04:07:34;;;;;;;59.92;2.92;;;;;;;;;;5073892;28;20209;-72
2022/02/21 04:10:02;;;;;;;59.45;3.38;;;;;;;;;;5073990;28;20209;-71
2022/02/21 04:12:29;;;;;;;60.15;3.72;;;;;;;;;;5073957;28;20295;-70
2022/02/21 04:14:56;;;;;;;59.90;3.70;;;;;;;;;;5073585;28;20419;-72
2022/02/21 04:17:23;;;;;;;58.78;3.58;;;;;;;;;;5073800;28;20207;-71
2022/02/21 04:19:50;;;;;;;60.50;3.78;;;;;;;;;;5073848;28;20669;-70
2022/02/21 04:22:18;;;;;;;59.55;3.85;;;;;;;;;;5073781;28;20211;-71
2022/02/21 04:24:46;;;;;;;57.65;3.30;;;;;;;;;;5073797;28;20316;-71
2022/02/21 04:27:13;;;;;;;58.60;3.20;;;;;;;;;;5073683;28;20299;-71
2022/02/21 04:29:40;;;;;;;59.40;3.35;;;;;;;;;;5073219;28;20248;-71
2022/02/21 04:32:08;;;;;;;61.75;3.90;;;;;;;;;;5073564;28;20295;-71
2022/02/21 04:34:35;;;;;;;62.90;3.45;;;;;;;;;;5073076;28;20217;-70
2022/02/21 04:37:02;;;;;;;60.78;3.88;;;;;;;;;;5087344;28;20607;-70
2022/02/21 04:39:30;;;;;;;60.95;4.20;;;;;;;;;;5093290;28;20200;-70
2022/02/21 04:41:58;;;;;;;58.95;3.90;;;;;;;;;;5093307;28;20210;-70
2022/02/21 04:44:25;;;;;;;58.50;3.22;;;;;;;;;;5093252;28;20224;-71
2022/02/21 04:46:55;;;;;;;59.47;3.33;;;;;;;;;;5093442;28;20577;-69
2022/02/21 04:49:24;;;;;;;59.90;3.70;;;;;;;;;;5093003;28;20208;-71
2022/02/21 04:51:51;;;;;;;62.50;4.10;;;;;;;;;;5093239;28;20255;-70
2022/02/21 04:54:18;;;;;;;59.58;3.15;;;;;;;;;;5092857;28;20307;-71
2022/02/21 04:56:45;;;;;;;58.38;3.15;;;;;;;;;;5093269;28;20205;-71
2022/02/21 04:59:14;;;;;;;58.50;2.67;;;;;;;;;;5092864;28;20690;-70
2022/02/21 05:01:41;;;;;;;59.10;2.60;;;;;;;;;;5093254;28;20653;-71
2022/02/21 05:04:08;;;;;;;64.03;3.53;;;;;;;;;;5092615;28;20224;-69
2022/02/21 05:06:35;;;;;;;61.72;4.00;;;;;;;;;;5092451;28;20208;-70
2022/02/21 05:09:02;;;;;;;61.45;3.20;;;;;;;;;;5091726;28;20291;-73
2022/02/21 05:11:29;;;;;;;59.30;2.90;;;;;;;;;;5093019;28;20579;-70
2022/02/21 05:13:56;;;;;;;58.88;3.00;;;;;;;;;;5092710;28;20219;-69
2022/02/21 05:16:25;;;;;;;60.10;3.50;;;;;;;;;;5092969;28;20287;-70
2022/02/21 05:18:52;;;;;;;58.95;3.05;;;;;;;;;;5092683;28;20208;-71
2022/02/21 05:21:19;;;;;;;66.18;3.65;;;;;;;;;;5092613;28;20273;-70
2022/02/21 05:23:46;;;;;;;63.50;3.50;;;;;;;;;;5092486;28;20295;-72
2022/02/21 05:26:13;;;;;;;61.63;3.70;;;;;;;;;;5092772;28;20315;-70
2022/02/21 05:28:40;;;;;;;62.00;3.35;;;;;;;;;;5092410;28;20219;-71
2022/02/21 05:31:07;;;;;;;60.05;3.17;;;;;;;;;;5092874;28;20207;-70
2022/02/21 05:33:36;;;;;;;59.42;3.85;;;;;;;;;;5092610;28;20296;-71
2022/02/21 05:36:03;;;;;;;68.70;3.60;;;;;;;;;;5092378;28;20598;-70
2022/02/21 05:38:30;;;;;;;59.97;2.70;;;;;;;;;;5092334;28;20638;-72
2022/02/21 05:40:57;;;;;;;62.97;3.67;;;;;;;;;;5092508;28;20286;-70
2022/02/21 05:43:25;;;;;;;61.38;3.30;;;;;;;;;;5092447;28;20204;-70
2022/02/21 05:45:52;;;;;;;59.30;2.92;;;;;;;;;;5092172;28;20652;-70
2022/02/21 05:48:19;;;;;;;68.28;4.15;;;;;;;;;;5091957;28;20204;-70
2022/02/21 05:50:48;;;;;;;63.90;3.40;;;;;;;;;;5092146;28;20295;-70
2022/02/21 05:53:15;;;;;;;61.70;3.53;;;;;;;;;;5092374;28;20293;-71
2022/02/21 05:55:42;;;;;;;64.13;3.45;;;;;;;;;;5092251;28;20598;-70
2022/02/21 05:58:09;;;;;;;62.42;3.65;;;;;;;;;;5091893;28;20208;-70
2022/02/21 06:00:36;;;;;;;66.05;3.50;;;;;;;;;;5092225;28;20212;-70
2022/02/21 06:03:04;;;;;;;64.07;4.20;;;;;;;;;;5091992;28;20588;-69
2022/02/21 06:05:31;;;;;;;61.97;3.25;;;;;;;;;;5091792;28;20234;-70
2022/02/21 06:07:59;;;;;;;65.38;4.13;;;;;;;;;;5091964;28;20563;-70
2022/02/21 06:10:27;;;;;;;65.45;3.50;;;;;;;;;;5092046;28;20200;-69
2022/02/21 06:12:54;;;;;;;63.55;3.60;;;;;;;;;;5092049;28;20236;-70
2022/02/21 06:15:21;;;;;;;62.20;3.35;;;;;;;;;;5090953;28;20220;-70
2022/02/21 06:17:48;;;;;;;64.97;3.47;;;;;;;;;;5091566;28;20200;-70
2022/02/21 06:20:15;;;;;;;64.43;3.70;;;;;;;;;;5092164;28;20740;-69
2022/02/21 06:22:42;;;;;;;63.25;3.47;;;;;;;;;;5091765;28;20698;-70
2022/02/21 06:25:11;;;;;;;61.95;3.65;;;;;;;;;;5091774;28;20609;-71
2022/02/21 06:27:38;;;;;;;62.05;3.40;;;;;;;;;;5091644;28;20200;-69
2022/02/21 06:30:06;;;;;;;63.38;3.50;;;;;;;;;;5091950;28;20607;-70
2022/02/21 06:32:34;;;;;;;63.63;4.20;;;;;;;;;;5091745;28;20208;-70
2022/02/21 06:35:01;;;;;;;69.30;3.90;;;;;;;;;;5091909;28;20310;-71
2022/02/21 06:37:28;;;;;;;63.38;3.80;;;;;;;;;;5091575;28;20635;-71
2022/02/21 06:39:55;;;;;;;59.58;3.80;;;;;;;;;;5091866;28;20205;-71
2022/02/21 06:42:24;;;;;;;61.53;3.30;;;;;;;;;;5091915;28;20295;-71
2022/02/21 06:44:52;;;;;;;64.32;4.00;;;;;;;;;;5091447;28;20224;-71
2022/02/21 06:47:20;;;;;;;63.38;3.20;;;;;;;;;;5091582;28;20231;-71
2022/02/21 06:49:47;;;;;;;61.60;3.22;;;;;;;;;;5092046;28;20296;-71
2022/02/21 06:52:14;;;;;;;60.92;3.78;;;;;;;;;;5091694;28;20646;-73
2022/02/21 06:54:41;;;;;;;60.60;3.33;;;;;;;;;;5091522;28;20383;-70
2022/02/21 06:57:09;;;;;;;64.32;3.17;;;;;;;;;;5091404;28;20303;-70
2022/02/21 06:59:37;;;;;;;68.82;3.50;;;;;;;;;;5091452;28;20258;-70
2022/02/21 07:02:05;;;;;;;64.82;3.83;;;;;;;;;;5091564;28;20715;-71
2022/02/21 07:04:32;;;;;;;63.78;3.97;;;;;;;;;;5091445;28;20607;-70
2022/02/21 07:06:59;;;;;;;62.25;3.42;;;;;;;;;;5091639;28;20226;-71
2022/02/21 07:09:26;;;;;;;69.85;3.95;;;;;;;;;;5091311;28;20235;-70
2022/02/21 07:11:53;;;;;;;64.20;3.60;;;;;;;;;;5091423;28;20710;-70
2022/02/21 07:14:22;;;;;;;61.50;3.10;;;;;;;;;;5091442;28;20319;-71
2022/02/21 07:16:51;;;;;;;74.88;4.25;;;;;;;;;;5091378;28;20201;-70
2022/02/21 07:19:18;;;;;;;62.15;3.42;;;;;;;;;;5091168;28;20676;-71
2022/02/21 07:21:45;;;;;;;60.95;3.30;;;;;;;;;;5091273;28;20295;-71
2022/02/21 07:24:13;;;;;;;61.38;3.20;;;;;;;;;;5091310;28;20230;-70
2022/02/21 07:26:40;;;;;;;60.53;3.28;;;;;;;;;;5092989;28;20220;-70
2022/02/21 07:29:07;;;;;;;64.53;3.75;;;;;;;;;;5094708;28;20212;-71
2022/02/21 07:31:35;;;;;;;68.35;3.65;;;;;;;;;;5094963;28;20262;-70
2022/02/21 07:34:03;;;;;;;60.28;2.95;;;;;;;;;;5094887;28;20224;-70
2022/02/21 07:36:31;;;;;;;59.53;3.13;;;;;;;;;;5094711;28;20295;-70
2022/02/21 07:39:01;;;;;;;68.38;3.90;;;;;;;;;;5094340;28;20204;-70
2022/02/21 07:41:28;;;;;;;60.00;3.90;;;;;;;;;;5094960;28;20211;-71
2022/02/21 07:43:55;;;;;;;62.65;3.60;;;;;;;;;;5094645;28;20204;-70
2022/02/21 07:46:23;;;;;;;65.10;3.55;;;;;;;;;;5094604;28;20224;-70
2022/02/21 07:48:50;;;;;;;71.65;3.35;;;;;;;;;;5094595;28;20231;-70
2022/02/21 07:51:19;;;;;;;70.20;3.50;;;;;;;;;;5094500;28;20205;-70
2022/02/21 07:53:46;;;;;;;62.60;3.10;;;;;;;;;;5094475;28;20204;-71
2022/02/21 07:56:13;;;;;;;60.72;2.92;;;;;;;;;;5094604;28;20200;-70
2022/02/21 07:58:40;;;;;;;62.15;3.72;;;;;;;;;;5094072;28;20207;-71
2022/02/21 08:01:07;;;;;;;65.97;3.90;;;;;;;;;;5094445;28;20581;-70
2022/02/21 08:03:37;;;;;;;65.78;3.72;;;;;;;;;;5094201;28;20695;-71
2022/02/21 08:06:04;;;;;;;70.28;3.88;;;;;;;;;;5093801;28;20221;-70
2022/02/21 08:08:32;;;;;;;73.18;5.22;;;;;;;;;;5093781;28;20291;-70
2022/02/21 08:10:59;;;;;;;70.45;4.32;;;;;;;;;;5094244;28;20288;-70
2022/02/21 08:13:27;;;;;;;71.03;3.65;;;;;;;;;;5094070;28;20214;-70
2022/02/21 08:15:54;;;;;;;63.25;3.42;;;;;;;;;;5093991;28;20226;-70
2022/02/21 08:18:21;;;;;;;63.63;4.30;;;;;;;;;;5093733;28;20299;-70
2022/02/21 08:20:48;;;;;;;60.80;3.90;;;;;;;;;;5093717;28;20205;-69
2022/02/21 08:23:15;;;;;;;62.17;3.58;;;;;;;;;;5093904;28;20207;-69
2022/02/21 08:25:44;;;;;;;68.95;4.25;;;;;;;;;;5093935;28;20458;-69
2022/02/21 08:28:11;;;;;;;62.65;3.60;;;;;;;;;;5093470;28;20204;-69
2022/02/21 08:30:38;;;;;;;60.75;3.72;;;;;;;;;;5093800;28;20626;-69
2022/02/21 08:33:05;;;;;;;62.95;3.50;;;;;;;;;;5093706;28;20209;-70
2022/02/21 08:35:33;;;;;;;66.72;4.35;;;;;;;;;;5093758;28;20273;-70
2022/02/21 08:38:02;;;;;;;71.18;4.00;;;;;;;;;;5092590;28;20211;-69
2022/02/21 08:40:29;;;;;;;63.28;4.68;;;;;;;;;;5093666;28;20597;-68
2022/02/21 08:42:57;;;;;;;64.50;4.00;;;;;;;;;;5093544;28;20216;-69
2022/02/21 08:45:25;;;;;;;65.82;4.25;;;;;;;;;;5093285;28;20230;-69
2022/02/21 08:47:52;;;;;;;63.65;4.07;;;;;;;;;;5092843;28;20204;-70
2022/02/21 08:50:19;;;;;;;62.00;4.45;;;;;;;;;;5093284;28;20673;-70
2022/02/21 08:52:46;;;;;;;75.90;4.05;;;;;;;;;;5093303;28;20734;-70
2022/02/21 08:55:15;;;;;;;62.88;3.72;;;;;;;;;;5093069;28;20235;-69
2022/02/21 08:57:42;;;;;;;66.68;4.30;;;;;;;;;;5092917;28;20206;-70
2022/02/21 09:00:12;;;;;;;62.20;4.20;;;;;;;;;;5093110;28;20206;-69
2022/02/21 09:02:39;;;;;;;73.07;3.67;;;;;;;;;;5093237;28;20447;-70
2022/02/21 09:05:07;;;;;;;61.10;3.30;;;;;;;;;;5093142;28;20468;-70
2022/02/21 09:07:34;;;;;;;64.70;4.10;;;;;;;;;;5092755;28;20900;-71
2022/02/21 09:10:01;;;;;;;66.00;4.93;;;;;;;;;;5093093;28;20503;-70
2022/02/21 09:12:28;;;;;;;66.03;5.03;;;;;;;;;;5092785;28;20232;-70
2022/02/21 09:14:56;;;;;;;67.17;3.87;;;;;;;;;;5092736;28;20475;-70
2022/02/21 09:17:25;;;;;;;65.03;4.00;;;;;;;;;;5092839;28;20445;-70
2022/02/21 09:19:52;;;;;;;69.18;3.70;;;;;;;;;;5092763;28;20533;-70
2022/02/21 09:22:21;;;;;;;67.60;3.90;;;;;;;;;;5092850;28;20209;-70
2022/02/21 09:24:48;;;;;;;66.43;3.90;;;;;;;;;;5092729;28;20820;-70
2022/02/21 09:27:15;;;;;;;66.18;3.80;;;;;;;;;;5092214;28;20569;-70
2022/02/21 09:29:43;;;;;;;66.13;3.47;;;;;;;;;;5092499;28;20588;-70
2022/02/21 09:32:10;;;;;;;65.07;4.00;;;;;;;;;;5092712;28;20450;-70
2022/02/21 09:34:39;;;;;;;62.10;3.53;;;;;;;;;;5092423;28;20847;-70
2022/02/21 09:37:06;;;;;;;63.27;4.60;;;;;;;;;;5092334;28;20462;-70
2022/02/21 09:39:33;;;;;;;64.57;3.70;;;;;;;;;;5092302;28;20968;-70
2022/02/21 09:42:01;;;;;;;62.77;3.90;;;;;;;;;;5092426;28;20450;-69
2022/02/21 09:44:28;;;;;;;63.97;3.60;;;;;;;;;;5092267;28;20581;-69
2022/02/21 09:46:57;;;;;;;73.03;4.10;;;;;;;;;;5092096;28;21035;-70
2022/02/21 09:49:25;;;;;;;60.10;3.43;;;;;;;;;;5091854;28;20820;-70
2022/02/21 09:51:53;;;;;;;63.30;3.60;;;;;;;;;;5092198;28;21001;-70
2022/02/21 09:54:21;;;;;;;62.35;3.97;;;;;;;;;;5092034;28;20545;-70
2022/02/21 09:56:50;;;;;;;68.50;3.17;;;;;;;;;;5090053;28;20205;-69
2022/02/21 09:59:17;;;;;;;60.50;3.50;;;;;;;;;;5091632;28;20741;-70
2022/02/21 10:01:45;;;;;;;59.87;3.17;;;;;;;;;;5090861;28;20449;-71
2022/02/21 10:04:12;;;;;;;64.30;3.60;;;;;;;;;;5071335;28;20466;-70
2022/02/21 10:06:39;;;;;;;60.70;3.50;;;;;;;;;;5071687;28;21056;-70
2022/02/21 10:09:09;;;;;;;61.17;2.80;;;;;;;;;;5071296;28;20939;-70
2022/02/21 10:11:38;;;;;;;62.27;3.43;;;;;;;;;;5071685;28;20452;-70
2022/02/21 10:14:07;;;;;;;63.47;3.40;;;;;;;;;;5071705;28;20551;-70
2022/02/21 10:16:42;;;;;;;59.83;3.40;;;;;;;;;;5071704;28;20979;-70
2022/02/21 10:19:13;;;;;;;61.40;3.83;;;;;;;;;;5071691;28;20447;-70
2022/02/21 10:21:59;;;;;;;61.40;3.03;;;;;;;;;;5071780;28;20439;-70
2022/02/21 10:24:28;;;;;;;60.20;3.40;;;;;;;;;;5071519;28;20477;-71
2022/02/21 10:26:57;;;;;;;60.27;3.30;;;;;;;;;;5071616;28;20479;-70
2022/02/21 10:29:24;;;;;;;61.40;3.13;;;;;;;;;;5071414;28;20470;-70
2022/02/21 10:31:51;;;;;;;63.40;3.87;;;;;;;;;;5071400;28;20456;-70
2022/02/21 10:34:18;;;;;;;63.47;3.43;;;;;;;;;;5070493;28;20471;-70
2022/02/21 10:36:46;;;;;;;67.10;3.73;;;;;;;;;;5071882;28;20447;-70
2022/02/21 10:39:14;;;;;;;60.17;2.80;;;;;;;;;;5071409;28;20449;-70
2022/02/21 10:41:47;;;;;;;62.70;3.13;;;;;;;;;;5071467;28;20545;-70
2022/02/21 10:44:16;;;;;;;63.67;3.90;;;;;;;;;;5071157;28;20559;-71
2022/02/21 10:46:44;;;;;;;60.40;3.40;;;;;;;;;;5071617;28;21059;-70
2022/02/21 10:49:12;;;;;;;59.33;3.60;;;;;;;;;;5071161;28;20455;-70
2022/02/21 10:51:39;;;;;;;65.33;3.37;;;;;;;;;;5071238;28;20494;-70
2022/02/21 10:54:10;;;;;;;62.00;3.23;;;;;;;;;;5071182;28;20563;-70
2022/02/21 10:56:43;;;;;;;60.80;3.50;;;;;;;;;;5071407;28;20524;-70
2022/02/21 10:59:19;;;;;;;60.87;3.40;;;;;;;;;;5070873;28;20453;-69
2022/02/21 11:01:47;;;;;;;66.87;3.67;;;;;;;;;;5073071;28;20632;-69
2022/02/21 11:04:14;;;;;;;60.47;3.13;;;;;;;;;;5074640;28;21018;-70
2022/02/21 11:06:42;;;;;;;62.13;3.20;;;;;;;;;;5073420;28;20479;-71
2022/02/21 11:09:10;;;;;;;60.47;3.77;;;;;;;;;;5074800;28;20837;-71
2022/02/21 11:11:37;;;;;;;61.27;3.07;;;;;;;;;;5074770;28;20936;-71
2022/02/21 11:14:05;;;;;;;60.73;3.17;;;;;;;;;;5074949;28;20465;-71
2022/02/21 11:16:35;;;;;;;59.27;2.70;;;;;;;;;;5074913;28;20461;-71
2022/02/21 11:19:02;;;;;;;60.27;2.97;;;;;;;;;;5074509;28;20824;-71
2022/02/21 11:21:33;;;;;;;58.77;2.87;;;;;;;;;;5074738;28;20463;-70
2022/02/21 11:24:01;;;;;;;59.37;3.10;;;;;;;;;;5074440;28;20471;-71
2022/02/21 11:26:30;;;;;;;59.27;3.23;;;;;;;;;;5074763;28;20480;-71
2022/02/21 11:28:59;;;;;;;58.90;2.90;;;;;;;;;;5074223;28;20550;-71
2022/02/21 11:31:29;;;;;;;61.30;2.90;;;;;;;;;;5074767;28;20828;-71
2022/02/21 11:34:02;;;;;;;58.40;2.80;;;;;;;;;;5074602;28;20512;-70
2022/02/21 11:36:29;;;;;;;60.97;3.00;;;;;;;;;;5074595;28;20542;-70
2022/02/21 11:38:57;;;;;;;60.83;3.23;;;;;;;;;;5094584;28;20443;-71
2022/02/21 11:41:31;;;;;;;63.37;3.17;;;;;;;;;;5094743;28;20547;-70
2022/02/21 11:43:59;;;;;;;63.70;2.97;;;;;;;;;;5094796;28;20452;-70
2022/02/21 11:46:26;;;;;;;59.45;3.00;;;;;;;;;;5094479;28;20482;-71
2022/02/21 11:48:58;;;;;;;58.72;3.08;;;;;;;;;;5094135;28;20207;-70
2022/02/21 11:51:27;;;;;;;59.40;3.20;;;;;;;;;;5094689;28;20284;-71
2022/02/21 11:53:54;;;;;;;58.10;2.92;;;;;;;;;;5094188;28;20205;-69
2022/02/21 11:56:41;;;;;;;58.80;3.10;;;;;;;;;;5094408;28;20297;-70
2022/02/21 11:59:25;;;;;;;64.17;3.30;;;;;;;;;;5093872;28;20465;-72
2022/02/21 12:02:01;;;;;;;62.67;3.43;;;;;;;;;;5094226;28;20479;-72
2022/02/21 12:04:29;;;;;;;62.10;3.30;;;;;;;;;;5094211;28;20473;-71
2022/02/21 12:06:58;;;;;;;60.03;2.83;;;;;;;;;;5094141;28;20576;-71
2022/02/21 12:09:26;;;;;;;58.93;3.60;;;;;;;;;;5092322;28;20548;-71
2022/02/21 12:11:53;;;;;;;61.80;3.40;;;;;;;;;;5094094;28;20539;-72
2022/02/21 12:14:21;;;;;;;62.63;3.37;;;;;;;;;;5094068;28;20603;-71
2022/02/21 12:17:07;;;;;;;62.90;3.87;;;;;;;;;;5093957;28;20481;-71
2022/02/21 12:19:39;;;;;;;60.40;3.30;;;;;;;;;;5094102;28;20453;-71
2022/02/21 12:22:09;;;;;;;66.47;3.07;;;;;;;;;;5093850;28;20458;-71
2022/02/21 12:24:36;;;;;;;61.27;3.43;;;;;;;;;;5093495;28;20999;-71
2022/02/21 12:27:13;;;;;;;59.53;3.23;;;;;;;;;;5093903;28;20952;-71
2022/02/21 12:29:41;;;;;;;62.00;3.00;;;;;;;;;;5093678;28;20461;-71
2022/02/21 12:32:09;;;;;;;60.43;3.07;;;;;;;;;;5093718;28;20544;-71
2022/02/21 12:34:38;;;;;;;63.37;3.20;;;;;;;;;;5093526;28;20832;-71
2022/02/21 12:37:06;;;;;;;58.77;2.90;;;;;;;;;;5093370;28;20488;-72
2022/02/21 12:39:35;;;;;;;59.90;3.57;;;;;;;;;;5093733;28;20460;-71
2022/02/21 12:42:03;;;;;;;61.97;3.47;;;;;;;;;;5091427;28;21001;-70
2022/02/21 12:44:30;;;;;;;65.00;3.27;;;;;;;;;;5093360;28;20561;-71
2022/02/21 12:47:00;;;;;;;61.60;3.13;;;;;;;;;;5093659;28;20517;-70
2022/02/21 12:49:29;;;;;;;59.47;2.77;;;;;;;;;;5092980;28;20486;-70
2022/02/21 12:51:57;;;;;;;60.40;2.80;;;;;;;;;;5093442;28;20453;-72
2022/02/21 12:54:25;;;;;;;60.80;3.30;;;;;;;;;;5093250;28;20467;-72
2022/02/21 12:56:54;;;;;;;59.27;2.77;;;;;;;;;;5093200;28;20456;-70
2022/02/21 12:59:22;;;;;;;59.83;2.87;;;;;;;;;;5093047;28;20451;-70
2022/02/21 13:01:50;;;;;;;60.67;3.40;;;;;;;;;;5092907;28;20543;-71
2022/02/21 13:04:17;;;;;;;64.70;3.00;;;;;;;;;;5093041;28;20473;-70
2022/02/21 13:06:45;;;;;;;60.60;3.00;;;;;;;;;;5093256;28;20444;-71
2022/02/21 13:09:12;;;;;;;63.40;3.13;;;;;;;;;;5092672;28;20949;-70
2022/02/21 13:11:40;;;;;;;58.80;3.03;;;;;;;;;;5090490;28;20801;-70
2022/02/21 13:14:10;;;;;;;58.50;2.87;;;;;;;;;;5092786;28;20471;-70
2022/02/21 13:16:49;;;;;;;60.57;3.27;;;;;;;;;;5092809;28;20551;-70
2022/02/21 13:19:16;;;;;;;59.63;3.13;;;;;;;;;;5092662;28;20445;-70
2022/02/21 13:21:46;;;;;;;58.70;3.37;;;;;;;;;;5092969;28;20539;-70
2022/02/21 13:24:15;;;;;;;59.30;2.73;;;;;;;;;;5092116;28;20907;-70
2022/02/21 13:26:44;;;;;;;58.67;2.93;;;;;;;;;;5092582;28;20449;-69
2022/02/21 13:29:33;;;;;;;60.83;3.27;;;;;;;;;;5092340;28;20571;-70
2022/02/21 13:32:01;;;;;;;60.10;2.73;;;;;;;;;;5092776;28;20467;-70
2022/02/21 13:34:45;;;;;;;63.23;2.73;;;;;;;;;;5092438;28;20470;-70
2022/02/21 13:37:13;;;;;;;61.40;2.87;;;;;;;;;;5092168;28;20671;-71
2022/02/21 13:39:41;;;;;;;60.97;3.23;;;;;;;;;;5092611;28;20828;-71
2022/02/21 13:42:16;;;;;;;58.90;3.47;;;;;;;;;;5092241;28;20539;-70
2022/02/21 13:44:44;;;;;;;60.23;3.10;;;;;;;;;;5076121;28;20563;-69
2022/02/21 13:47:26;;;;;;;60.10;3.10;;;;;;;;;;5071811;28;20491;-70
2022/02/21 13:49:53;;;;;;;61.07;3.00;;;;;;;;;;5071805;28;20867;-70
2022/02/21 13:52:21;;;;;;;60.97;2.50;;;;;;;;;;5071879;28;20950;-69
2022/02/21 13:54:48;;;;;;;59.13;3.00;;;;;;;;;;5071686;28;20661;-71
2022/02/21 13:57:16;;;;;;;59.73;2.90;;;;;;;;;;5071701;28;20525;-69
2022/02/21 13:59:45;;;;;;;59.53;2.40;;;;;;;;;;5071647;28;20447;-72
2022/02/21 14:02:22;;;;;;;60.57;2.80;;;;;;;;;;5071664;28;20448;-69
2022/02/21 14:04:49;;;;;;;59.30;2.97;;;;;;;;;;5071596;28;20469;-69
2022/02/21 14:07:17;;;;;;;60.80;2.73;;;;;;;;;;5071631;28;20492;-69
2022/02/21 14:09:44;;;;;;;59.50;2.47;;;;;;;;;;5071621;28;20976;-69
2022/02/21 14:12:11;;;;;;;60.67;2.77;;;;;;;;;;5071670;28;20479;-70
2022/02/21 14:14:39;;;;;;;58.07;2.40;;;;;;;;;;5071323;28;21077;-70
2022/02/21 14:17:07;;;;;;;59.10;2.67;;;;;;;;;;5090076;28;20450;-70
2022/02/21 14:19:34;;;;;;;58.87;2.83;;;;;;;;;;5091608;28;20988;-70
2022/02/21 14:22:01;;;;;;;59.33;2.70;;;;;;;;;;5091818;28;20531;-70
2022/02/21 14:24:29;;;;;;;58.67;2.63;;;;;;;;;;5091510;28;20957;-71
2022/02/21 14:26:56;;;;;;;62.43;3.30;;;;;;;;;;5091890;28;20543;-71
2022/02/21 14:29:23;;;;;;;59.90;2.80;;;;;;;;;;5091432;28;20551;-72
2022/02/21 14:31:50;;;;;;;58.03;2.70;;;;;;;;;;5091695;28;20896;-72
2022/02/21 14:34:19;;;;;;;58.57;3.00;;;;;;;;;;5091851;28;20469;-70
2022/02/21 14:36:46;;;;;;;61.10;2.90;;;;;;;;;;5093458;28;20816;-71